createdAt,value
2019-05-23T00:02:15.598Z,17.09
2019-05-23T00:05:13.352Z,17.03
2019-05-23T00:08:01.919Z,17.02
2019-05-23T00:10:55.940Z,17.03
2019-05-23T00:13:50.934Z,17.02
2019-05-23T00:16:26.893Z,16.98
2019-05-23T00:18:58.920Z,17.17
2019-05-23T00:21:31.057Z,17.25
2019-05-23T00:24:02.992Z,17.14
2019-05-23T00:26:36.963Z,16.98
2019-05-23T00:29:10.309Z,16.97
2019-05-23T00:31:50.419Z,17.08
2019-05-23T00:34:21.845Z,16.96
2019-05-23T00:36:55.169Z,16.81
2019-05-23T00:39:26.185Z,16.74
2019-05-23T00:41:58.853Z,16.93
2019-05-23T00:44:31.326Z,16.90
2019-05-23T00:47:05.509Z,16.75
2019-05-23T00:49:36.436Z,16.66
2019-05-23T00:52:09.564Z,16.62
2019-05-23T00:54:41.294Z,16.60
2019-05-23T00:57:13.148Z,16.62
2019-05-23T00:59:43.863Z,16.77
2019-05-23T01:02:15.574Z,16.90
2019-05-23T01:04:46.199Z,16.66
2019-05-23T01:07:20.471Z,16.54
2019-05-23T01:09:52.230Z,16.42
2019-05-23T01:12:25.168Z,16.40
2019-05-23T01:14:55.494Z,16.59
2019-05-23T01:17:29.054Z,16.42
2019-05-23T01:20:00.944Z,16.41
2019-05-23T01:22:32.192Z,16.75
2019-05-23T01:25:05.263Z,16.46
2019-05-23T01:27:36.701Z,16.28
2019-05-23T01:30:09.598Z,16.25
2019-05-23T01:32:47.288Z,16.22
2019-05-23T01:35:20.674Z,16.18
2019-05-23T01:37:55.106Z,16.13
2019-05-23T01:40:25.727Z,16.10
2019-05-23T01:42:57.908Z,16.07
2019-05-23T01:45:28.327Z,16.05
2019-05-23T01:47:59.830Z,16.02
2019-05-23T01:50:30.761Z,15.91
2019-05-23T01:53:01.986Z,15.88
2019-05-23T01:55:32.808Z,15.83
2019-05-23T01:58:04.761Z,15.80
2019-05-23T02:00:35.572Z,15.75
2019-05-23T02:03:07.861Z,15.73
2019-05-23T02:05:39.147Z,15.68
2019-05-23T02:08:15.491Z,15.64
2019-05-23T02:10:46.031Z,15.66
2019-05-23T02:13:17.760Z,15.62
2019-05-23T02:15:49.459Z,15.60
2019-05-23T02:18:22.170Z,15.58
2019-05-23T02:20:53.984Z,15.55
2019-05-23T02:23:25.377Z,15.56
2019-05-23T02:25:58.168Z,15.60
2019-05-23T02:28:31.087Z,15.67
2019-05-23T02:31:02.251Z,15.66
2019-05-23T02:33:36.158Z,15.63
2019-05-23T02:36:07.033Z,15.61
2019-05-23T02:38:49.759Z,15.59
2019-05-23T02:41:39.889Z,15.53
2019-05-23T02:44:11.826Z,15.49
2019-05-23T02:46:53.320Z,15.46
2019-05-23T02:49:28.777Z,15.44
2019-05-23T02:52:02.009Z,15.42
2019-05-23T02:54:37.200Z,15.38
2019-05-23T02:57:06.764Z,15.37
2019-05-23T02:59:48.103Z,15.31
2019-05-23T03:02:38.186Z,15.24
2019-05-23T03:05:15.500Z,15.26
2019-05-23T03:07:45.822Z,15.13
2019-05-23T03:10:20.657Z,15.03
2019-05-23T03:12:53.270Z,14.95
2019-05-23T03:15:28.434Z,14.87
2019-05-23T03:18:01.781Z,14.81
2019-05-23T03:20:34.721Z,14.74
2019-05-23T03:23:11.696Z,14.70
2019-05-23T03:26:01.519Z,14.71
2019-05-23T03:28:39.719Z,14.68
2019-05-23T03:31:30.634Z,14.82
2019-05-23T03:33:58.588Z,14.86
2019-05-23T03:36:30.342Z,14.79
2019-05-23T03:39:02.068Z,14.80
2019-05-23T03:41:33.248Z,14.78
2019-05-23T03:44:05.033Z,14.70
2019-05-23T03:46:38.595Z,14.57
2019-05-23T03:49:10.762Z,14.52
2019-05-23T03:51:41.802Z,14.46
2019-05-23T03:54:15.422Z,14.46
2019-05-23T03:56:47.547Z,14.73
2019-05-23T03:59:20.045Z,14.70
2019-05-23T04:01:52.579Z,14.77
2019-05-23T04:04:24.689Z,14.69
2019-05-23T04:06:57.055Z,14.64
2019-05-23T04:09:28.090Z,14.69
2019-05-23T04:11:58.933Z,14.57
2019-05-23T04:14:30.071Z,14.55
2019-05-23T04:17:05.213Z,14.64
2019-05-23T04:19:35.580Z,14.53
2019-05-23T04:22:09.045Z,14.44
2019-05-23T04:24:39.887Z,14.41
2019-05-23T04:27:14.699Z,14.42
2019-05-23T04:29:45.522Z,14.44
2019-05-23T04:32:17.745Z,14.46
2019-05-23T04:34:48.483Z,14.55
2019-05-23T04:37:19.558Z,14.46
2019-05-23T04:39:51.383Z,14.38
2019-05-23T04:42:21.743Z,14.49
2019-05-23T04:44:52.295Z,14.48
2019-05-23T04:47:26.388Z,14.43
2019-05-23T04:49:57.137Z,14.48
2019-05-23T04:52:28.313Z,14.59
2019-05-23T04:54:59.446Z,14.81
2019-05-23T04:57:31.604Z,14.84
2019-05-23T05:00:03.235Z,15.07
2019-05-23T05:02:36.823Z,14.79
2019-05-23T05:05:07.952Z,14.81
2019-05-23T05:07:41.564Z,14.82
2019-05-23T05:10:16.144Z,15.08
2019-05-23T05:12:47.742Z,15.50
2019-05-23T05:15:18.752Z,15.53
2019-05-23T05:17:51.711Z,16.04
2019-05-23T05:20:22.622Z,16.56
2019-05-23T05:22:53.430Z,17.29
2019-05-23T05:25:25.089Z,17.53
2019-05-23T05:27:56.337Z,17.87
2019-05-23T05:30:28.142Z,17.70
2019-05-23T05:32:59.354Z,17.53
2019-05-23T05:35:30.284Z,17.47
2019-05-23T05:38:03.270Z,17.59
2019-05-23T05:40:34.558Z,18.22
2019-05-23T05:43:05.737Z,18.70
2019-05-23T05:45:36.468Z,19.13
2019-05-23T05:48:07.305Z,19.53
2019-05-23T05:50:38.981Z,20.10
2019-05-23T05:53:10.208Z,20.78
2019-05-23T05:55:40.508Z,21.24
2019-05-23T05:58:11.793Z,21.81
2019-05-23T06:00:49.997Z,21.96
2019-05-23T06:03:22.066Z,21.24
2019-05-23T06:05:55.348Z,20.72
2019-05-23T06:08:33.230Z,20.27
2019-05-23T06:11:04.166Z,20.13
2019-05-23T06:13:35.523Z,20.60
2019-05-23T06:16:06.071Z,21.42
2019-05-23T06:18:38.114Z,22.58
2019-05-23T06:21:11.548Z,22.69
2019-05-23T06:23:42.110Z,22.34
2019-05-23T06:26:12.636Z,21.43
2019-05-23T06:28:48.367Z,20.97
2019-05-23T06:31:19.288Z,20.72
2019-05-23T06:33:49.779Z,21.25
2019-05-23T06:36:20.096Z,21.62
2019-05-23T06:38:52.118Z,22.15
2019-05-23T06:41:24.235Z,22.54
2019-05-23T06:43:55.205Z,23.25
2019-05-23T06:46:26.016Z,24.12
2019-05-23T06:48:57.143Z,24.21
2019-05-23T06:51:27.968Z,24.37
2019-05-23T06:53:59.708Z,24.72
2019-05-23T06:56:32.329Z,24.78
2019-05-23T06:59:04.991Z,25.22
2019-05-23T07:01:35.307Z,25.50
2019-05-23T07:04:08.393Z,26.25
2019-05-23T07:06:39.078Z,26.43
2019-05-23T07:09:13.237Z,26.06
2019-05-23T07:11:43.961Z,25.74
2019-05-23T07:14:14.937Z,25.87
2019-05-23T07:16:45.597Z,26.42
2019-05-23T07:19:17.497Z,26.90
2019-05-23T07:21:47.916Z,27.17
2019-05-23T07:24:19.483Z,27.70
2019-05-23T07:26:50.115Z,28.28
2019-05-23T07:29:21.740Z,26.97
2019-05-23T07:31:52.058Z,27.33
2019-05-23T07:34:24.085Z,27.51
2019-05-23T07:36:55.050Z,27.80
2019-05-23T07:39:28.191Z,28.10
2019-05-23T07:41:59.166Z,28.54
2019-05-23T07:44:47.186Z,28.94
2019-05-23T07:47:04.101Z,29.39
2019-05-23T07:49:34.684Z,29.28
2019-05-23T07:52:05.847Z,29.72
2019-05-23T07:54:41.464Z,30.63
2019-05-23T07:57:13.346Z,31.06
2019-05-23T07:59:46.310Z,31.35
2019-05-23T08:02:25.698Z,31.46
2019-05-23T08:04:56.581Z,31.12
2019-05-23T08:07:27.599Z,30.74
2019-05-23T08:10:01.064Z,31.07
2019-05-23T08:12:31.761Z,31.26
2019-05-23T08:15:02.531Z,31.67
2019-05-23T08:17:33.516Z,31.88
2019-05-23T08:20:06.108Z,31.58
2019-05-23T08:22:37.018Z,31.86
2019-05-23T08:25:08.111Z,31.77
2019-05-23T08:27:38.809Z,31.80
2019-05-23T08:30:12.733Z,32.26
2019-05-23T08:32:43.406Z,32.44
2019-05-23T08:35:17.990Z,32.46
2019-05-23T08:37:48.029Z,32.31
2019-05-23T08:40:23.322Z,31.56
2019-05-23T08:42:53.940Z,31.56
2019-05-23T08:45:24.930Z,31.72
2019-05-23T08:47:55.719Z,31.88
2019-05-23T08:50:27.163Z,32.44
2019-05-23T08:52:57.481Z,32.48
2019-05-23T08:55:31.091Z,32.72
2019-05-23T08:58:01.674Z,32.69
2019-05-23T09:00:38.401Z,32.18
2019-05-23T09:03:08.723Z,32.06
2019-05-23T09:05:41.419Z,31.86
2019-05-23T09:08:16.673Z,31.51
2019-05-23T09:10:48.146Z,31.51
2019-05-23T09:13:19.499Z,31.02
2019-05-23T09:15:53.200Z,30.51
2019-05-23T09:18:22.861Z,30.51
2019-05-23T09:20:58.434Z,30.07
2019-05-23T09:23:29.340Z,30.17
2019-05-23T09:26:00.018Z,30.07
2019-05-23T09:28:32.882Z,29.66
2019-05-23T09:31:09.224Z,30.20
2019-05-23T09:33:42.281Z,30.56
2019-05-23T09:36:14.803Z,30.84
2019-05-23T09:38:45.923Z,30.83
2019-05-23T09:41:16.937Z,30.77
2019-05-23T09:43:47.666Z,30.48
2019-05-23T09:46:18.051Z,30.40
2019-05-23T09:48:48.732Z,30.53
2019-05-23T09:51:21.330Z,30.56
2019-05-23T09:53:53.744Z,30.59
2019-05-23T09:56:24.524Z,30.84
2019-05-23T09:58:55.031Z,31.01
2019-05-23T10:01:26.541Z,31.09
2019-05-23T10:03:57.280Z,31.18
2019-05-23T10:06:31.006Z,30.96
2019-05-23T10:09:02.125Z,30.86
2019-05-23T10:11:32.581Z,30.75
2019-05-23T10:14:06.383Z,30.65
2019-05-23T10:16:37.038Z,30.31
2019-05-23T10:19:07.918Z,29.44
2019-05-23T10:21:38.345Z,29.20
2019-05-23T10:24:10.831Z,29.25
2019-05-23T10:26:41.186Z,29.71
2019-05-23T10:29:11.805Z,30.14
2019-05-23T10:31:43.015Z,30.67
2019-05-23T10:34:15.018Z,30.89
2019-05-23T10:36:45.893Z,31.38
2019-05-23T10:39:17.707Z,31.23
2019-05-23T10:41:49.117Z,31.48
2019-05-23T10:44:20.703Z,31.33
2019-05-23T10:46:52.424Z,30.90
2019-05-23T10:49:22.811Z,31.04
2019-05-23T10:51:53.678Z,30.39
2019-05-23T10:54:25.787Z,30.02
2019-05-23T10:56:56.076Z,30.08
2019-05-23T10:59:26.400Z,29.55
2019-05-23T11:01:56.872Z,29.23
2019-05-23T11:04:27.713Z,29.23
2019-05-23T11:06:58.986Z,29.22
2019-05-23T11:09:37.965Z,29.70
2019-05-23T11:12:01.910Z,29.57
2019-05-23T11:14:32.777Z,29.42
2019-05-23T11:17:03.917Z,29.07
2019-05-23T11:19:35.611Z,29.22
2019-05-23T11:22:07.707Z,29.50
2019-05-23T11:24:38.490Z,29.63
2019-05-23T11:27:10.060Z,29.95
2019-05-23T11:29:40.416Z,30.02
2019-05-23T11:32:11.079Z,29.42
2019-05-23T11:34:42.115Z,29.38
2019-05-23T11:37:16.692Z,28.98
2019-05-23T11:39:49.741Z,28.67
2019-05-23T11:42:19.631Z,28.75
2019-05-23T11:44:50.362Z,28.61
2019-05-23T11:47:22.178Z,28.62
2019-05-23T11:49:52.544Z,28.87
2019-05-23T11:52:23.699Z,29.07
2019-05-23T11:54:55.635Z,28.88
2019-05-23T11:57:27.006Z,29.22
2019-05-23T11:59:57.508Z,29.50
2019-05-23T12:02:33.032Z,29.60
2019-05-23T12:05:06.589Z,29.38
2019-05-23T12:07:37.808Z,29.48
2019-05-23T12:10:09.462Z,29.18
2019-05-23T12:12:41.998Z,28.89
2019-05-23T12:15:15.848Z,29.19
2019-05-23T12:17:47.833Z,29.25
2019-05-23T12:20:18.469Z,29.32
2019-05-23T12:22:49.610Z,29.08
2019-05-23T12:25:23.071Z,28.91
2019-05-23T12:27:52.536Z,28.76
2019-05-23T12:30:23.563Z,28.87
2019-05-23T12:32:54.618Z,29.02
2019-05-23T12:35:24.934Z,29.07
2019-05-23T12:37:56.424Z,29.00
2019-05-23T12:40:28.035Z,29.12
2019-05-23T12:42:59.585Z,28.84
2019-05-23T12:45:30.363Z,28.46
2019-05-23T12:48:04.003Z,28.11
2019-05-23T12:50:46.794Z,28.15
2019-05-23T12:53:19.176Z,27.79
2019-05-23T12:55:49.707Z,27.32
2019-05-23T12:58:22.121Z,26.79
2019-05-23T13:01:00.248Z,26.54
2019-05-23T13:03:34.021Z,26.13
2019-05-23T13:06:04.236Z,25.61
2019-05-23T13:08:35.845Z,25.28
2019-05-23T13:11:06.523Z,25.34
2019-05-23T13:13:37.828Z,25.19
2019-05-23T13:16:08.069Z,25.02
2019-05-23T13:18:39.794Z,25.27
2019-05-23T13:21:10.339Z,25.36
2019-05-23T13:23:41.181Z,25.38
2019-05-23T13:26:12.308Z,25.84
2019-05-23T13:28:42.920Z,25.98
2019-05-23T13:31:13.552Z,25.85
2019-05-23T13:33:44.203Z,25.81
2019-05-23T13:36:15.945Z,25.95
2019-05-23T13:41:26.571Z,25.85
2019-05-23T13:43:57.625Z,25.93
2019-05-23T13:46:28.025Z,26.07
2019-05-23T13:48:59.380Z,26.14
2019-05-23T13:51:30.191Z,25.94
2019-05-23T13:54:01.418Z,25.81
2019-05-23T13:56:32.225Z,25.92
2019-05-23T13:59:06.977Z,25.79
2019-05-23T14:01:38.085Z,25.58
2019-05-23T14:04:09.263Z,25.49
2019-05-23T14:06:39.590Z,25.47
2019-05-23T14:09:12.770Z,25.41
2019-05-23T14:11:44.087Z,25.42
2019-05-23T14:14:15.525Z,25.64
2019-05-23T14:16:57.431Z,25.83
2019-05-23T14:19:30.204Z,25.79
2019-05-23T14:22:02.090Z,25.52
2019-05-23T14:24:37.335Z,25.33
2019-05-23T14:27:15.645Z,25.47
2019-05-23T14:29:50.162Z,25.61
2019-05-23T14:32:22.431Z,25.83
2019-05-23T14:34:54.518Z,25.79
2019-05-23T14:37:26.398Z,25.84
2019-05-23T14:40:00.030Z,25.80
2019-05-23T14:42:37.691Z,25.79
2019-05-23T14:45:10.685Z,25.48
2019-05-23T14:47:57.947Z,25.59
2019-05-23T14:50:39.315Z,25.80
2019-05-23T14:53:12.781Z,25.80
2019-05-23T14:55:45.821Z,26.01
2019-05-23T14:58:16.954Z,25.85
2019-05-23T15:00:50.338Z,25.64
2019-05-23T15:03:20.782Z,25.49
2019-05-23T15:05:52.864Z,25.30
2019-05-23T15:08:23.364Z,25.12
2019-05-23T15:10:53.928Z,24.89
2019-05-23T15:13:26.251Z,24.72
2019-05-23T15:15:59.273Z,24.33
2019-05-23T15:18:29.701Z,24.09
2019-05-23T15:21:01.076Z,23.55
2019-05-23T15:23:31.462Z,23.26
2019-05-23T15:26:20.978Z,22.84
2019-05-23T15:28:36.495Z,22.82
2019-05-23T15:31:08.021Z,22.25
2019-05-23T15:33:38.352Z,21.91
2019-05-23T15:36:09.533Z,21.68
2019-05-23T15:38:40.763Z,21.63
2019-05-23T15:41:13.126Z,21.73
2019-05-23T15:43:43.626Z,21.52
2019-05-23T15:46:14.299Z,21.31
2019-05-23T15:48:45.023Z,21.25
2019-05-23T15:51:17.732Z,20.91
2019-05-23T15:53:56.084Z,20.39
2019-05-23T15:56:41.859Z,20.12
2019-05-23T15:59:25.117Z,19.80
2019-05-23T16:02:09.316Z,19.67
2019-05-23T16:04:39.442Z,19.50
2019-05-23T16:07:10.962Z,19.45
2019-05-23T16:09:43.278Z,19.19
2019-05-23T16:12:16.663Z,19.18
2019-05-23T16:14:47.456Z,19.06
2019-05-23T16:17:18.284Z,19.16
2019-05-23T16:19:48.695Z,19.32
2019-05-23T16:22:20.671Z,19.43
2019-05-23T16:24:51.108Z,19.27
2019-05-23T16:27:22.014Z,19.25
2019-05-23T16:29:53.380Z,19.27
2019-05-23T16:32:25.435Z,19.10
2019-05-23T16:34:55.874Z,19.09
2019-05-23T16:37:26.557Z,19.28
2019-05-23T16:39:57.207Z,19.38
2019-05-23T16:42:28.964Z,19.50
2019-05-23T16:44:59.289Z,19.52
2019-05-23T16:47:30.426Z,19.69
2019-05-23T16:50:00.748Z,19.92
2019-05-23T16:52:33.395Z,19.88
2019-05-23T16:55:05.704Z,19.74
2019-05-23T16:57:38.448Z,19.97
2019-05-23T17:00:29.088Z,19.97
2019-05-23T17:03:19.353Z,20.17
2019-05-23T17:05:58.117Z,20.07
2019-05-23T17:08:30.572Z,20.18
2019-05-23T17:11:20.122Z,20.36
2019-05-23T17:13:56.600Z,20.29
2019-05-23T17:16:31.228Z,20.49
2019-05-23T17:19:04.930Z,20.46
2019-05-23T17:21:37.134Z,20.38
2019-05-23T17:24:10.286Z,20.34
2019-05-23T17:26:42.923Z,20.26
2019-05-23T17:29:18.831Z,20.07
2019-05-23T17:31:50.748Z,19.98
2019-05-23T17:34:23.464Z,19.92
2019-05-23T17:36:54.629Z,19.77
2019-05-23T17:39:28.007Z,19.90
2019-05-23T17:41:58.691Z,19.70
2019-05-23T17:44:30.503Z,19.51
2019-05-23T17:47:00.927Z,19.27
2019-05-23T17:49:32.918Z,19.37
2019-05-23T17:52:03.354Z,19.09
2019-05-23T17:54:34.410Z,18.98
2019-05-23T17:57:05.272Z,19.13
2019-05-23T17:59:36.727Z,19.03
2019-05-23T18:02:07.658Z,18.75
2019-05-23T18:04:38.413Z,18.85
2019-05-23T18:07:09.880Z,19.00
2019-05-23T18:09:40.235Z,18.82
2019-05-23T18:12:10.572Z,18.87
2019-05-23T18:14:43.972Z,18.58
2019-05-23T18:17:15.392Z,18.49
2019-05-23T18:19:46.874Z,18.41
2019-05-23T18:22:18.483Z,18.33
2019-05-23T18:24:49.313Z,18.12
2019-05-23T18:27:20.206Z,17.92
2019-05-23T18:29:52.011Z,17.75
2019-05-23T18:32:23.521Z,17.79
2019-05-23T18:34:55.270Z,17.87
2019-05-23T18:37:25.905Z,17.95
2019-05-23T18:39:56.676Z,17.91
2019-05-23T18:42:27.232Z,17.69
2019-05-23T18:44:59.122Z,17.54
2019-05-23T18:47:31.490Z,17.49
2019-05-23T18:50:02.700Z,17.37
2019-05-23T18:52:34.080Z,17.29
2019-05-23T18:55:11.256Z,17.19
2019-05-23T18:57:47.209Z,17.30
2019-05-23T19:00:22.177Z,17.61
2019-05-23T19:02:55.495Z,17.62
2019-05-23T19:05:31.101Z,17.30
2019-05-23T19:08:03.938Z,17.00
2019-05-23T19:10:35.631Z,16.53
2019-05-23T19:13:06.248Z,16.29
2019-05-23T19:15:39.174Z,16.36
2019-05-23T19:18:09.574Z,16.39
2019-05-23T19:20:41.722Z,16.41
2019-05-23T19:23:12.641Z,16.28
2019-05-23T19:25:46.991Z,16.28
2019-05-23T19:28:18.142Z,16.25
2019-05-23T19:30:49.561Z,16.12
2019-05-23T19:33:19.990Z,15.93
2019-05-23T19:35:53.388Z,15.92
2019-05-23T19:38:24.141Z,15.80
2019-05-23T19:40:55.882Z,15.83
2019-05-23T19:43:27.648Z,15.68
2019-05-23T19:45:58.157Z,15.66
2019-05-23T19:48:29.404Z,15.45
2019-05-23T19:51:00.760Z,15.44
2019-05-23T19:53:31.892Z,15.53
2019-05-23T19:56:04.358Z,15.31
2019-05-23T19:58:36.116Z,15.38
2019-05-23T20:01:07.865Z,15.35
2019-05-23T20:03:38.883Z,15.31
2019-05-23T20:06:12.532Z,15.47
2019-05-23T20:08:44.272Z,15.67
2019-05-23T20:11:14.925Z,15.41
2019-05-23T20:13:46.529Z,15.49
2019-05-23T20:16:18.751Z,15.65
2019-05-23T20:18:49.965Z,15.55
2019-05-23T20:21:20.776Z,15.43
2019-05-23T20:23:52.215Z,15.58
2019-05-23T20:26:23.448Z,15.47
2019-05-23T20:28:54.311Z,15.43
2019-05-23T20:31:24.652Z,15.51
2019-05-23T20:33:55.085Z,15.75
2019-05-23T20:36:25.636Z,15.42
2019-05-23T20:38:55.875Z,15.31
2019-05-23T20:41:28.341Z,15.20
2019-05-23T20:43:58.829Z,15.12
2019-05-23T20:46:32.647Z,15.12
2019-05-23T20:49:03.274Z,14.96
2019-05-23T20:51:34.358Z,14.90
2019-05-23T20:54:05.505Z,14.95
2019-05-23T20:56:38.133Z,14.97
2019-05-23T20:59:09.229Z,15.14
2019-05-23T21:01:41.339Z,15.31
2019-05-23T21:04:11.751Z,15.29
2019-05-23T21:06:42.386Z,15.17
2019-05-23T21:09:15.725Z,15.19
2019-05-23T21:11:45.892Z,15.15
2019-05-23T21:14:16.794Z,15.15
2019-05-23T21:16:48.189Z,15.20
2019-05-23T21:19:18.583Z,15.15
2019-05-23T21:21:50.179Z,15.00
2019-05-23T21:24:21.805Z,15.04
2019-05-23T21:26:53.377Z,15.16
2019-05-23T21:29:23.744Z,15.15
2019-05-23T21:31:55.957Z,15.09
2019-05-23T21:34:26.638Z,14.95
2019-05-23T21:36:57.328Z,14.92
2019-05-23T21:39:28.203Z,14.84
2019-05-23T21:41:59.421Z,14.94
2019-05-23T21:44:29.734Z,14.86
2019-05-23T21:47:01.571Z,14.83
2019-05-23T21:49:31.891Z,14.83
2019-05-23T21:52:02.694Z,14.79
2019-05-23T21:54:33.469Z,14.86
2019-05-23T21:57:04.921Z,14.91
2019-05-23T21:59:35.825Z,14.97
2019-05-23T22:02:17.508Z,14.94
2019-05-23T22:04:49.520Z,14.94
2019-05-23T22:07:20.791Z,14.91
2019-05-23T22:09:51.504Z,14.84
2019-05-23T22:12:22.830Z,14.78
2019-05-23T22:14:53.957Z,14.72
2019-05-23T22:17:27.974Z,14.72
2019-05-23T22:19:58.484Z,14.63
2019-05-23T22:22:29.246Z,14.53
2019-05-23T22:25:03.718Z,14.57
2019-05-23T22:27:38.228Z,14.71
2019-05-23T22:30:09.411Z,14.44
2019-05-23T22:32:40.254Z,14.08
2019-05-23T22:35:12.471Z,14.08
2019-05-23T22:37:44.746Z,14.09
2019-05-23T22:40:15.989Z,14.05
2019-05-23T22:42:46.671Z,14.09
2019-05-23T22:45:19.050Z,14.07
2019-05-23T22:47:50.785Z,13.98
2019-05-23T22:50:21.221Z,13.90
2019-05-23T22:52:51.571Z,13.92
2019-05-23T22:55:21.897Z,14.06
2019-05-23T22:57:53.836Z,14.19
2019-05-23T23:00:26.347Z,14.04
2019-05-23T23:02:56.742Z,13.95
2019-05-23T23:05:27.588Z,13.85
2019-05-23T23:08:01.486Z,13.83
2019-05-23T23:10:31.865Z,13.83
2019-05-23T23:13:02.854Z,13.83
2019-05-23T23:15:33.655Z,13.82
2019-05-23T23:18:05.513Z,13.96
2019-05-23T23:20:36.826Z,13.99
2019-05-23T23:23:07.186Z,13.96
2019-05-23T23:25:37.709Z,13.86
2019-05-23T23:28:09.067Z,13.90
2019-05-23T23:30:43.996Z,13.85
2019-05-23T23:33:14.514Z,13.85
2019-05-23T23:35:46.312Z,14.02
2019-05-23T23:38:17.410Z,14.27
2019-05-23T23:40:48.054Z,14.03
2019-05-23T23:43:18.999Z,13.85
2019-05-23T23:46:07.220Z,13.77
2019-05-23T23:48:58.152Z,13.74
2019-05-23T23:51:47.143Z,13.81
2019-05-23T23:54:35.753Z,13.65
2019-05-23T23:57:23.692Z,13.56
2019-05-23T23:59:54.406Z,13.58
